Terminal Aerodrome Forecast
Issued by NWS Amarillo, TX

Home | Current Version | Previous Version | Text Only | Print | Product List | Glossary On
Versions: 1 2 3 4 5 6 7 8 9 10 11 12
550
FTUS44 KAMA 112320
TAFAMA
TAF
KAMA 112320Z 1200/1224 18008KT P6SM FEW250
     FM120800 35009KT P6SM FEW250
     FM121600 06011KT P6SM FEW250=

USA.gov is the U.S. government's official web portal to all federal, state and local government web resources and services.